Time;durP1;ratioP1;P1;durP2;ratioP2;P2;SDS_P1;SDS_P2;PMS_P1;PMS_P2;Temp;Humidity;BMP_temperature;BMP_pressure;BME280_temperature;BME280_humidity;BME280_pressure;Samples;Min_cycle;Max_cycle;Signal;HPM_P1;HPM_P2
2024/03/11 00:00:23;;;;;;;1.60;1.50;;;;;;;8.62;67.82;95046.88;4978864;28;20058;-79
2024/03/11 00:02:52;;;;;;;1.40;1.30;;;;;;;8.55;68.85;95053.91;4979662;28;20050;-80
2024/03/11 00:05:20;;;;;;;1.40;1.30;;;;;;;8.54;69.16;95049.69;4978474;28;20106;-78
2024/03/11 00:07:50;;;;;;;1.63;1.30;;;;;;;8.52;69.06;95049.09;4979155;28;20079;-79
2024/03/11 00:10:18;;;;;;;1.95;1.45;;;;;;;8.53;69.14;95055.91;4979498;28;20499;-78
2024/03/11 00:12:49;;;;;;;1.30;1.20;;;;;;;8.59;70.41;95052.50;4979714;28;20090;-78
2024/03/11 00:15:20;;;;;;;2.75;1.17;;;;;;;8.63;68.96;95056.25;4979171;28;20483;-79
2024/03/11 00:17:50;;;;;;;1.40;1.30;;;;;;;8.61;67.99;95058.25;4980162;28;20597;-79
2024/03/11 00:20:18;;;;;;;1.52;1.25;;;;;;;8.52;68.26;95064.69;4980077;28;20058;-78
2024/03/11 00:22:46;;;;;;;1.70;1.48;;;;;;;8.42;68.90;95059.16;4979815;28;20077;-82
2024/03/11 00:25:14;;;;;;;1.35;1.25;;;;;;;8.41;69.76;95063.53;4979124;28;20057;-79
2024/03/11 00:27:41;;;;;;;2.50;1.50;;;;;;;8.47;69.15;95063.72;4979356;28;20061;-81
2024/03/11 00:30:11;;;;;;;1.42;1.30;;;;;;;8.52;70.35;95064.69;4979498;28;20047;-79
2024/03/11 00:32:44;;;;;;;1.48;1.17;;;;;;;8.57;69.03;95072.69;4979547;28;20467;-78
2024/03/11 00:35:14;;;;;;;1.90;1.80;;;;;;;8.55;68.15;95066.91;4978362;28;20046;-77
2024/03/11 00:37:42;;;;;;;1.45;1.35;;;;;;;8.53;68.41;95068.91;4978611;28;20047;-79
2024/03/11 00:40:11;;;;;;;1.95;1.75;;;;;;;8.49;68.75;95072.91;4978851;28;20058;-77
2024/03/11 00:42:39;;;;;;;1.58;1.45;;;;;;;8.46;68.57;95065.50;4978814;28;20502;-77
2024/03/11 00:45:10;;;;;;;1.48;1.38;;;;;;;8.42;68.43;95075.53;4977903;28;20474;-79
2024/03/11 00:47:39;;;;;;;2.70;1.70;;;;;;;8.45;70.82;95075.13;4979145;28;20078;-82
2024/03/11 00:50:09;;;;;;;1.58;1.48;;;;;;;8.50;70.04;95071.91;4983320;28;20074;-80
2024/03/11 00:52:39;;;;;;;1.67;1.58;;;;;;;8.55;71.68;95072.09;4983000;28;20051;-82
2024/03/11 00:55:09;;;;;;;1.50;1.40;;;;;;;8.57;69.51;95071.88;4982387;28;20051;-83
2024/03/11 00:57:37;;;;;;;1.23;1.13;;;;;;;8.57;70.51;95077.88;4983353;28;20071;-78
2024/03/11 01:00:11;;;;;;;1.23;1.13;;;;;;;8.56;69.48;95076.28;4982937;28;20511;-84
2024/03/11 01:02:39;;;;;;;1.20;1.10;;;;;;;8.58;70.07;95076.88;4983520;28;20050;-80
2024/03/11 01:05:08;;;;;;;1.35;1.25;;;;;;;8.59;69.17;95075.88;4981949;28;20050;-81
2024/03/11 01:07:36;;;;;;;1.10;1.10;;;;;;;8.57;69.04;95087.47;4981702;28;20050;-79
2024/03/11 01:10:15;;;;;;;1.35;1.25;;;;;;;8.60;69.65;95092.28;4982361;28;20051;-80
2024/03/11 01:12:44;;;;;;;1.30;0.85;;;;;;;8.64;69.99;95083.06;4982483;28;20367;-82
2024/03/11 01:15:12;;;;;;;0.90;0.90;;;;;;;8.70;69.73;95091.81;4982257;28;20057;-79
2024/03/11 01:17:40;;;;;;;1.15;1.02;;;;;;;8.68;68.68;95091.22;4982925;28;20051;-83
2024/03/11 01:20:12;;;;;;;0.93;0.93;;;;;;;8.66;70.47;95097.44;4983325;28;20075;-78
2024/03/11 01:22:40;;;;;;;1.15;0.95;;;;;;;8.67;69.12;95098.22;4982164;28;20055;-79
2024/03/11 01:25:09;;;;;;;0.90;0.85;;;;;;;8.61;68.05;95099.84;4982552;28;20117;-81
2024/03/11 01:27:41;;;;;;;1.67;0.88;;;;;;;8.54;67.88;95093.88;4981047;28;20574;-80
2024/03/11 01:30:09;;;;;;;0.90;0.90;;;;;;;8.50;68.98;95095.28;4981450;28;20086;-81
2024/03/11 01:32:38;;;;;;;0.85;0.85;;;;;;;8.47;68.47;95095.72;4982923;28;20122;-83
2024/03/11 01:35:06;;;;;;;0.88;0.88;;;;;;;8.40;68.04;95092.31;4982428;28;20082;-80
2024/03/11 01:37:36;;;;;;;0.90;0.90;;;;;;;8.37;69.39;95103.09;4982635;28;20057;-81
2024/03/11 01:40:09;;;;;;;0.90;0.90;;;;;;;8.37;70.68;95106.47;4982169;28;20059;-80
2024/03/11 01:42:42;;;;;;;1.05;0.93;;;;;;;8.37;69.27;95109.09;4981853;28;20491;-79
2024/03/11 01:45:12;;;;;;;1.90;1.15;;;;;;;8.34;70.57;95119.09;4994770;23;20051;-77
2024/03/11 01:47:40;;;;;;;0.95;0.90;;;;;;;8.34;69.27;95119.91;4974719;28;20061;-77
2024/03/11 01:50:09;;;;;;;0.70;0.70;;;;;;;8.31;68.54;95112.53;4975419;28;20055;-77
2024/03/11 01:52:43;;;;;;;1.05;1.05;;;;;;;8.29;68.06;95118.91;4975045;28;20051;-77
2024/03/11 01:55:11;;;;;;;0.80;0.80;;;;;;;8.23;68.01;95121.31;4972942;28;20046;-77
2024/03/11 01:57:41;;;;;;;0.98;0.98;;;;;;;8.17;67.79;95122.13;4955605;29;20055;-77
2024/03/11 02:00:11;;;;;;;0.88;0.88;;;;;;;8.13;68.52;95120.94;4955934;29;20114;-77
2024/03/11 02:02:39;;;;;;;0.95;0.90;;;;;;;8.14;68.27;95124.34;4955677;29;20059;-77
2024/03/11 02:05:13;;;;;;;1.10;1.00;;;;;;;8.15;68.26;95133.72;4955485;28;20062;-77
2024/03/11 02:07:43;;;;;;;1.42;1.00;;;;;;;8.16;68.23;95128.34;4955468;29;20082;-77
2024/03/11 02:10:13;;;;;;;1.73;1.00;;;;;;;8.16;68.07;95125.72;4955312;28;20051;-77
2024/03/11 02:12:45;;;;;;;1.05;0.95;;;;;;;8.16;68.19;95136.13;4955817;28;20051;-77
2024/03/11 02:15:13;;;;;;;1.27;1.00;;;;;;;8.20;69.13;95141.72;4954997;28;20404;-77
2024/03/11 02:17:41;;;;;;;0.98;0.98;;;;;;;8.20;69.25;95134.72;4955222;29;20106;-77
2024/03/11 02:20:16;;;;;;;1.05;0.95;;;;;;;8.24;69.33;95142.88;4956472;29;20058;-77
2024/03/11 02:22:46;;;;;;;3.75;1.30;;;;;;;8.24;69.17;95148.91;4955755;29;20507;-77
2024/03/11 02:25:16;;;;;;;2.38;1.50;;;;;;;8.27;69.79;95144.31;4955183;28;20051;-77
2024/03/11 02:27:45;;;;;;;0.75;0.73;;;;;;;8.34;69.54;95152.88;4962090;28;20367;-77
2024/03/11 02:30:12;;;;;;;1.27;1.00;;;;;;;8.39;70.58;95159.03;4976322;28;20039;-77
2024/03/11 02:32:40;;;;;;;2.67;1.08;;;;;;;8.47;71.18;95165.09;4975918;28;20075;-77
2024/03/11 02:35:08;;;;;;;1.08;0.98;;;;;;;8.49;70.51;95169.06;4956791;28;20047;-77
2024/03/11 02:37:39;;;;;;;1.23;0.93;;;;;;;8.52;70.76;95166.06;4955693;29;20055;-77
2024/03/11 02:40:09;;;;;;;3.30;0.85;;;;;;;8.56;69.84;95164.66;4955165;28;20110;-77
2024/03/11 02:42:39;;;;;;;3.03;1.35;;;;;;;8.59;69.05;95166.84;4954985;29;20082;-77
2024/03/11 02:45:09;;;;;;;0.98;0.88;;;;;;;8.63;69.17;95170.63;4954994;28;20059;-77
2024/03/11 02:47:37;;;;;;;1.80;1.10;;;;;;;8.66;70.00;95172.81;4955568;29;20047;-77
2024/03/11 02:50:07;;;;;;;0.80;0.80;;;;;;;8.73;70.44;95170.19;4955393;29;20077;-77
2024/03/11 02:52:36;;;;;;;0.70;0.70;;;;;;;8.75;68.58;95177.81;4961247;29;20051;-77
2024/03/11 02:55:05;;;;;;;0.55;0.52;;;;;;;8.77;68.88;95175.81;4974595;28;20043;-77
2024/03/11 02:57:34;;;;;;;1.58;0.80;;;;;;;8.80;69.37;95183.97;4975751;28;20055;-77
2024/03/11 03:00:10;;;;;;;0.77;0.77;;;;;;;8.84;69.73;95192.16;4969260;29;20423;-77
2024/03/11 03:02:38;;;;;;;0.75;0.55;;;;;;;8.85;69.18;95188.56;4960239;28;20427;-77
2024/03/11 03:05:06;;;;;;;1.05;0.98;;;;;;;8.86;68.61;95195.38;4958629;28;20086;-77
2024/03/11 03:07:35;;;;;;;2.30;0.68;;;;;;;8.87;68.86;95191.75;4959034;28;20051;-77
2024/03/11 03:10:03;;;;;;;1.17;0.70;;;;;;;8.86;69.31;95195.38;4959003;29;20051;-77
2024/03/11 03:12:31;;;;;;;0.60;0.60;;;;;;;8.85;69.19;95188.56;4957220;29;20102;-77
2024/03/11 03:14:58;;;;;;;2.72;0.90;;;;;;;8.85;69.29;95193.75;4954892;28;20103;-77
2024/03/11 03:17:27;;;;;;;0.80;0.80;;;;;;;8.82;69.66;95194.19;4955212;28;20059;-77
2024/03/11 03:19:55;;;;;;;1.02;0.80;;;;;;;8.78;70.40;95192.97;4954793;29;20057;-76
2024/03/11 03:22:22;;;;;;;1.13;1.02;;;;;;;8.76;69.45;95194.97;4954637;29;20047;-77
2024/03/11 03:24:51;;;;;;;1.05;0.95;;;;;;;8.76;70.47;95200.97;4954543;28;20126;-77
2024/03/11 03:27:18;;;;;;;0.70;0.70;;;;;;;8.73;69.22;95204.00;4954320;28;20086;-77
2024/03/11 03:29:46;;;;;;;1.33;1.00;;;;;;;8.65;69.00;95199.81;4954430;28;20523;-77
2024/03/11 03:32:18;;;;;;;0.98;0.98;;;;;;;8.64;70.14;95197.44;4954592;28;20047;-77
2024/03/11 03:34:49;;;;;;;1.25;1.10;;;;;;;8.61;68.69;95198.59;4954333;29;20142;-77
2024/03/11 03:37:16;;;;;;;2.13;0.98;;;;;;;8.55;68.13;95199.44;4954423;28;20498;-77
2024/03/11 03:39:44;;;;;;;0.98;0.98;;;;;;;8.47;67.81;95202.25;4954214;29;20480;-77
2024/03/11 03:42:12;;;;;;;1.23;1.00;;;;;;;8.37;67.39;95202.63;4954708;28;20098;-77
2024/03/11 03:44:40;;;;;;;1.92;0.90;;;;;;;8.26;67.61;95221.41;4954978;29;20106;-77
2024/03/11 03:47:07;;;;;;;1.85;1.00;;;;;;;8.15;67.71;95214.25;4955316;28;20051;-77
2024/03/11 03:49:35;;;;;;;1.75;1.40;;;;;;;8.06;68.07;95213.63;4954718;29;20062;-77
2024/03/11 03:52:05;;;;;;;1.38;1.13;;;;;;;7.99;67.92;95225.81;4955978;28;20127;-77
2024/03/11 03:54:32;;;;;;;1.38;1.27;;;;;;;7.90;67.92;95216.66;4958118;29;20063;-77
2024/03/11 03:57:00;;;;;;;1.52;0.93;;;;;;;7.77;68.54;95218.22;4957870;28;20079;-77
2024/03/11 03:59:28;;;;;;;1.40;1.00;;;;;;;7.69;68.21;95209.81;4958048;29;20055;-77
2024/03/11 04:01:56;;;;;;;1.23;0.77;;;;;;;7.63;70.48;95216.59;4958068;29;20050;-77
2024/03/11 04:04:24;;;;;;;1.25;0.80;;;;;;;7.68;69.99;95214.22;4957739;29;20142;-77
2024/03/11 04:06:51;;;;;;;1.00;0.90;;;;;;;7.67;69.96;95217.78;4957293;28;20047;-77
2024/03/11 04:09:21;;;;;;;1.58;0.90;;;;;;;7.64;69.00;95225.97;4958552;28;20078;-77
2024/03/11 04:11:48;;;;;;;0.80;0.80;;;;;;;7.55;68.49;95225.38;4958288;28;20475;-77
2024/03/11 04:14:16;;;;;;;1.10;1.00;;;;;;;7.48;68.58;95223.75;4957591;28;20514;-77
2024/03/11 04:16:44;;;;;;;1.85;1.20;;;;;;;7.40;68.51;95219.53;4957250;28;20047;-77
2024/03/11 04:19:12;;;;;;;1.77;1.23;;;;;;;7.33;68.58;95222.13;4957680;29;20055;-77
2024/03/11 04:21:40;;;;;;;1.35;1.08;;;;;;;7.26;68.47;95226.50;4957395;28;20051;-77
2024/03/11 04:24:11;;;;;;;1.13;1.02;;;;;;;7.20;69.72;95225.47;4957638;29;20115;-77
2024/03/11 04:26:41;;;;;;;0.90;0.90;;;;;;;7.12;69.20;95220.44;4957534;28;20047;-77
2024/03/11 04:29:09;;;;;;;2.20;1.33;;;;;;;7.03;68.83;95226.00;4957492;29;20110;-77
2024/03/11 04:31:38;;;;;;;1.48;1.20;;;;;;;6.93;68.89;95234.13;4957540;28;20051;-77
2024/03/11 04:34:05;;;;;;;1.30;1.15;;;;;;;6.89;68.80;95225.16;4957185;28;20062;-77
2024/03/11 04:36:33;;;;;;;1.55;1.40;;;;;;;6.83;68.83;95231.88;4957220;28;20053;-77
2024/03/11 04:39:04;;;;;;;1.40;0.90;;;;;;;6.79;69.16;95233.25;4957297;28;20134;-77
2024/03/11 04:41:32;;;;;;;3.50;1.00;;;;;;;6.74;68.75;95241.59;4957454;29;20463;-77
2024/03/11 04:44:01;;;;;;;0.98;0.88;;;;;;;6.69;68.75;95245.75;4957342;28;20051;-77
2024/03/11 04:46:29;;;;;;;1.52;1.23;;;;;;;6.63;68.77;95252.50;4958424;28;20098;-77
2024/03/11 04:48:58;;;;;;;1.80;1.45;;;;;;;6.56;68.73;95257.66;4958359;29;20126;-77
2024/03/11 04:51:25;;;;;;;1.83;0.90;;;;;;;6.47;68.85;95253.59;4959648;28;20495;-77
2024/03/11 04:53:53;;;;;;;0.88;0.85;;;;;;;6.42;69.10;95249.97;4960174;29;20087;-77
2024/03/11 04:56:21;;;;;;;1.27;0.60;;;;;;;6.42;69.02;95257.75;4968638;28;20058;-77
2024/03/11 04:58:48;;;;;;;0.93;0.90;;;;;;;6.37;68.95;95261.69;4961652;28;20051;-77
2024/03/11 05:01:18;;;;;;;0.93;0.90;;;;;;;6.31;69.10;95269.41;4959344;29;20075;-76
2024/03/11 05:03:45;;;;;;;1.05;0.95;;;;;;;6.24;69.37;95269.38;4960246;28;20064;-77
2024/03/11 05:06:13;;;;;;;1.10;1.00;;;;;;;6.23;69.58;95264.38;4964669;28;20126;-76
2024/03/11 05:08:40;;;;;;;2.92;1.25;;;;;;;6.20;69.65;95265.53;4962667;28;20051;-76
2024/03/11 05:11:08;;;;;;;1.35;1.20;;;;;;;6.19;69.62;95277.69;4957583;28;20117;-76
2024/03/11 05:13:36;;;;;;;1.55;1.45;;;;;;;6.17;69.49;95274.50;4957769;28;20142;-77
2024/03/11 05:16:04;;;;;;;2.33;1.70;;;;;;;6.13;69.64;95268.09;4957127;28;20051;-76
2024/03/11 05:18:32;;;;;;;4.35;2.13;;;;;;;6.11;69.45;95285.59;4956780;28;20119;-76
2024/03/11 05:21:00;;;;;;;2.50;2.22;;;;;;;6.06;69.27;95282.75;4957205;29;20083;-77
2024/03/11 05:23:28;;;;;;;2.35;2.15;;;;;;;6.01;69.82;95279.91;4956791;28;20062;-75
2024/03/11 05:25:55;;;;;;;3.40;2.15;;;;;;;5.99;69.72;95284.47;4956142;28;20047;-79
2024/03/11 05:28:23;;;;;;;2.40;2.08;;;;;;;5.93;70.01;95287.78;4951777;29;20078;-76
2024/03/11 05:30:50;;;;;;;3.60;2.40;;;;;;;5.84;69.97;95292.28;4944025;29;20050;-76
2024/03/11 05:33:20;;;;;;;3.65;2.30;;;;;;;5.76;70.00;95302.75;4949904;28;20047;-77
2024/03/11 05:35:49;;;;;;;3.45;2.00;;;;;;;5.63;70.74;95308.56;4944132;29;20055;-76
2024/03/11 05:38:16;;;;;;;2.30;2.10;;;;;;;5.55;70.97;95306.91;4937942;29;20119;-76
2024/03/11 05:40:47;;;;;;;3.08;2.28;;;;;;;5.52;70.82;95316.81;4938224;29;20504;-76
2024/03/11 05:43:14;;;;;;;2.50;2.30;;;;;;;5.49;70.96;95324.94;4952633;28;20055;-82
2024/03/11 05:45:42;;;;;;;2.63;2.20;;;;;;;5.44;70.74;95324.66;4951649;28;20093;-82
2024/03/11 05:48:09;;;;;;;3.00;2.30;;;;;;;5.37;71.00;95324.59;4943263;29;20075;-82
2024/03/11 05:50:38;;;;;;;2.28;2.05;;;;;;;5.31;71.09;95326.13;4937894;29;20110;-82
2024/03/11 05:53:07;;;;;;;2.97;2.38;;;;;;;5.25;71.21;95332.00;4938671;29;20052;-82
2024/03/11 05:55:36;;;;;;;2.40;1.90;;;;;;;5.19;71.62;95337.91;4955930;29;20087;-81
2024/03/11 05:58:10;;;;;;;2.72;2.50;;;;;;;5.07;71.79;95334.16;4947609;29;20054;-77
2024/03/11 06:00:42;;;;;;;2.72;2.53;;;;;;;5.00;71.75;95341.81;4954956;29;20511;-79
2024/03/11 06:03:11;;;;;;;2.72;2.25;;;;;;;4.98;71.69;95350.72;4958207;29;20094;-79
2024/03/11 06:05:39;;;;;;;2.92;2.53;;;;;;;4.91;71.79;95351.44;4979207;28;20055;-80
2024/03/11 06:08:08;;;;;;;3.70;2.42;;;;;;;4.84;72.37;95350.53;4979027;28;20123;-81
2024/03/11 06:10:36;;;;;;;2.65;2.45;;;;;;;4.78;72.46;95353.81;4962731;29;20062;-80
2024/03/11 06:13:04;;;;;;;3.72;2.47;;;;;;;4.77;72.49;95359.16;4956957;29;20141;-81
2024/03/11 06:15:32;;;;;;;3.72;2.20;;;;;;;4.75;73.06;95361.94;4956106;28;20515;-80
2024/03/11 06:18:00;;;;;;;2.35;2.10;;;;;;;4.77;73.41;95359.97;4955630;29;20562;-80
2024/03/11 06:20:27;;;;;;;2.85;2.53;;;;;;;4.82;72.88;95372.38;4955822;29;20061;-81
2024/03/11 06:22:55;;;;;;;2.45;1.92;;;;;;;4.78;72.67;95371.91;4955965;28;20146;-80
2024/03/11 06:25:24;;;;;;;3.45;2.65;;;;;;;4.74;73.24;95375.81;4956062;28;20055;-80
2024/03/11 06:27:52;;;;;;;2.67;2.47;;;;;;;4.74;72.98;95370.66;4956290;28;20503;-78
2024/03/11 06:30:20;;;;;;;3.25;2.60;;;;;;;4.80;73.42;95374.31;4956652;28;20097;-78
2024/03/11 06:32:50;;;;;;;3.10;2.72;;;;;;;4.89;73.48;95379.22;4956757;28;20051;-78
2024/03/11 06:35:19;;;;;;;3.30;3.00;;;;;;;4.86;73.02;95377.00;4956106;28;20134;-80
2024/03/11 06:37:47;;;;;;;3.63;2.95;;;;;;;4.83;72.81;95371.38;4955462;28;20067;-80
2024/03/11 06:40:17;;;;;;;3.40;2.97;;;;;;;4.84;73.44;95376.38;4955415;29;20087;-80
2024/03/11 06:42:51;;;;;;;4.05;3.00;;;;;;;4.93;73.34;95377.91;4955172;29;20591;-80
2024/03/11 06:45:21;;;;;;;3.00;2.70;;;;;;;5.01;72.93;95378.78;4954707;28;20059;-80
2024/03/11 06:47:48;;;;;;;3.50;3.00;;;;;;;5.08;73.14;95392.63;4956010;29;20057;-80
2024/03/11 06:50:16;;;;;;;4.97;3.38;;;;;;;5.18;72.70;95387.19;4955138;28;20055;-81
2024/03/11 06:52:45;;;;;;;3.78;3.03;;;;;;;5.25;72.41;95391.47;4955194;29;20420;-80
2024/03/11 06:55:16;;;;;;;3.60;3.05;;;;;;;5.34;72.38;95398.16;4953642;28;20054;-80
2024/03/11 06:57:44;;;;;;;4.60;3.53;;;;;;;5.46;72.39;95406.25;4955094;28;20050;-80
2024/03/11 07:00:20;;;;;;;4.57;3.78;;;;;;;5.58;72.27;95414.41;4955115;29;20420;-80
2024/03/11 07:02:48;;;;;;;4.03;3.05;;;;;;;5.74;71.93;95414.19;4955700;29;20535;-81
2024/03/11 07:05:17;;;;;;;3.58;2.85;;;;;;;5.87;71.40;95415.34;4954697;28;20055;-81
2024/03/11 07:07:46;;;;;;;3.22;2.92;;;;;;;5.93;70.87;95415.41;4954812;29;20047;-80
2024/03/11 07:10:15;;;;;;;3.47;3.05;;;;;;;5.98;71.01;95425.25;4954392;29;20055;-80
2024/03/11 07:12:44;;;;;;;3.70;3.33;;;;;;;6.03;70.88;95433.25;4954895;28;20043;-80
2024/03/11 07:15:11;;;;;;;4.30;3.50;;;;;;;6.01;70.53;95434.44;4954530;28;20113;-80
2024/03/11 07:17:41;;;;;;;5.25;4.50;;;;;;;6.00;70.89;95441.41;4954425;28;20155;-80
2024/03/11 07:20:12;;;;;;;5.35;4.43;;;;;;;6.07;70.49;95452.63;4955877;29;20047;-81
2024/03/11 07:22:42;;;;;;;4.63;3.58;;;;;;;6.21;70.59;95445.84;4955680;29;20063;-80
2024/03/11 07:25:10;;;;;;;4.03;3.50;;;;;;;6.35;69.95;95455.34;4957381;28;20059;-80
2024/03/11 07:27:38;;;;;;;3.63;3.00;;;;;;;6.42;69.83;95458.00;4958979;29;20047;-81
2024/03/11 07:30:08;;;;;;;3.85;3.33;;;;;;;6.55;70.04;95454.72;4957393;29;20048;-78
2024/03/11 07:32:35;;;;;;;4.40;3.83;;;;;;;6.70;69.15;95462.47;4956986;28;20046;-78
2024/03/11 07:35:05;;;;;;;4.43;3.92;;;;;;;6.76;69.58;95465.09;4955562;28;20094;-78
2024/03/11 07:37:36;;;;;;;3.40;3.10;;;;;;;6.86;69.26;95464.78;4955930;28;20179;-76
2024/03/11 07:40:10;;;;;;;3.35;2.97;;;;;;;7.00;68.82;95468.31;4956096;29;20051;-78
2024/03/11 07:42:38;;;;;;;3.25;2.95;;;;;;;7.15;68.86;95468.19;4955909;29;20500;-78
2024/03/11 07:45:10;;;;;;;2.95;2.50;;;;;;;7.26;67.82;95475.50;4955028;29;20071;-80
2024/03/11 07:47:39;;;;;;;2.67;2.45;;;;;;;7.38;68.02;95479.16;4955417;29;20078;-81
2024/03/11 07:50:10;;;;;;;2.80;2.60;;;;;;;7.55;67.75;95484.06;4955254;29;20078;-79
2024/03/11 07:52:38;;;;;;;3.97;2.67;;;;;;;7.69;66.85;95488.34;4956360;29;20146;-79
2024/03/11 07:55:07;;;;;;;2.90;2.58;;;;;;;7.86;66.63;95490.63;4955040;28;20110;-79
2024/03/11 07:57:36;;;;;;;3.00;2.80;;;;;;;8.07;66.24;95497.50;4955118;28;20426;-79
2024/03/11 08:00:05;;;;;;;3.25;2.50;;;;;;;8.30;65.31;95494.63;4959213;29;20051;-79
2024/03/11 08:02:34;;;;;;;3.10;2.80;;;;;;;8.58;64.83;95497.94;4955118;28;20106;-79
2024/03/11 08:05:03;;;;;;;2.67;2.40;;;;;;;8.93;64.09;95504.81;4954885;28;20054;-79
2024/03/11 08:07:32;;;;;;;3.75;2.40;;;;;;;9.32;63.99;95506.66;4955322;28;20079;-79
2024/03/11 08:10:01;;;;;;;3.47;2.58;;;;;;;9.65;62.47;95506.63;4955202;28;20062;-79
2024/03/11 08:12:29;;;;;;;3.45;2.25;;;;;;;9.92;61.71;95514.38;4954906;28;20077;-79
2024/03/11 08:14:56;;;;;;;2.50;2.28;;;;;;;10.14;60.66;95509.72;4955372;28;20051;-79
2024/03/11 08:17:24;;;;;;;3.63;2.72;;;;;;;10.38;59.99;95510.06;4954871;29;20055;-79
2024/03/11 08:19:52;;;;;;;2.47;2.28;;;;;;;10.69;59.36;95512.75;4954710;28;20419;-80
2024/03/11 08:22:20;;;;;;;3.30;3.00;;;;;;;11.08;58.35;95513.47;4954740;28;20074;-79
2024/03/11 08:24:49;;;;;;;2.72;2.40;;;;;;;11.51;57.13;95515.38;4954530;28;20475;-79
2024/03/11 08:27:17;;;;;;;4.20;3.20;;;;;;;11.89;56.18;95519.66;4953826;28;20494;-79
2024/03/11 08:29:44;;;;;;;4.60;2.75;;;;;;;12.32;56.33;95518.81;4954407;28;20138;-80
2024/03/11 08:32:12;;;;;;;3.50;2.42;;;;;;;12.78;56.09;95509.59;4962543;29;20081;-80
2024/03/11 08:34:40;;;;;;;2.08;1.40;;;;;;;13.30;54.50;95519.56;4970419;29;20082;-80
2024/03/11 08:37:09;;;;;;;1.38;1.27;;;;;;;13.85;52.43;95528.94;4969039;28;20055;-80
2024/03/11 08:39:37;;;;;;;2.38;1.52;;;;;;;14.33;50.50;95525.25;4958839;28;20051;-80
2024/03/11 08:42:07;;;;;;;1.83;1.60;;;;;;;14.82;50.92;95530.97;4957696;29;20055;-79
2024/03/11 08:44:35;;;;;;;2.17;1.70;;;;;;;15.28;48.42;95528.31;4957685;28;20047;-79
2024/03/11 08:47:02;;;;;;;2.35;1.75;;;;;;;15.68;47.10;95534.47;4957164;28;20047;-79
2024/03/11 08:49:37;;;;;;;2.33;1.95;;;;;;;15.96;46.43;95537.06;4958454;29;20083;-80
2024/03/11 08:52:06;;;;;;;2.83;2.33;;;;;;;16.02;45.70;95540.53;4956934;28;20514;-80
2024/03/11 08:54:35;;;;;;;3.72;1.83;;;;;;;15.89;45.69;95541.66;4957126;28;20515;-79
2024/03/11 08:57:02;;;;;;;3.72;1.63;;;;;;;15.54;46.20;95545.31;4956847;29;20079;-79
2024/03/11 08:59:31;;;;;;;2.63;1.70;;;;;;;15.30;46.69;95554.38;4956990;29;20062;-80
2024/03/11 09:01:59;;;;;;;1.52;1.35;;;;;;;15.22;47.69;95553.72;4957092;28;20451;-79
2024/03/11 09:04:28;;;;;;;1.27;1.13;;;;;;;15.21;47.53;95554.75;4956811;29;20055;-79
2024/03/11 09:06:58;;;;;;;4.40;1.40;;;;;;;15.24;47.74;95556.13;4956946;29;20059;-79
2024/03/11 09:09:26;;;;;;;1.67;1.58;;;;;;;15.40;47.73;95559.81;4957031;29;20051;-79
2024/03/11 09:11:57;;;;;;;1.80;1.15;;;;;;;15.61;46.77;95561.75;4957022;29;20051;-80
2024/03/11 09:14:26;;;;;;;2.85;1.52;;;;;;;15.77;47.37;95564.63;4956970;28;20093;-80
2024/03/11 09:16:57;;;;;;;2.42;1.40;;;;;;;16.06;45.91;95562.69;4956776;29;20083;-79
2024/03/11 09:19:25;;;;;;;1.80;1.02;;;;;;;16.46;47.50;95577.44;4956722;29;20047;-80
2024/03/11 09:21:54;;;;;;;0.90;0.38;;;;;;;16.91;45.39;95575.66;4956924;28;20051;-80
2024/03/11 09:24:22;;;;;;;2.00;0.45;;;;;;;17.39;43.75;95574.03;4956846;28;20051;-80
2024/03/11 09:26:50;;;;;;;3.40;1.10;;;;;;;17.78;43.04;95565.91;4956417;28;20051;-80
2024/03/11 09:29:17;;;;;;;1.77;1.60;;;;;;;18.28;42.60;95569.97;4957339;28;20051;-80
2024/03/11 09:31:45;;;;;;;3.05;1.02;;;;;;;18.80;42.97;95569.16;4957099;29;20464;-80
2024/03/11 09:34:15;;;;;;;2.25;1.30;;;;;;;19.39;40.56;95575.13;4956232;28;20687;-80
2024/03/11 09:36:42;;;;;;;3.92;1.50;;;;;;;19.89;38.75;95577.03;4957154;29;20474;-81
2024/03/11 09:39:12;;;;;;;2.03;1.42;;;;;;;20.19;37.71;95580.72;4958066;28;20048;-81
2024/03/11 09:41:42;;;;;;;6.05;1.90;;;;;;;19.95;37.30;95580.47;4976134;28;20047;-80
2024/03/11 09:44:15;;;;;;;1.48;1.38;;;;;;;19.51;38.26;95588.91;4975202;29;20054;-81
2024/03/11 09:46:48;;;;;;;1.10;0.77;;;;;;;19.19;38.41;95581.97;4965048;29;20055;-81
2024/03/11 09:49:19;;;;;;;0.68;0.65;;;;;;;18.99;38.98;95581.91;4958977;28;20098;-81
2024/03/11 09:51:47;;;;;;;0.65;0.50;;;;;;;18.94;40.27;95582.69;4958807;29;20051;-81
2024/03/11 09:54:17;;;;;;;1.63;1.10;;;;;;;18.93;39.27;95576.63;4966063;28;20071;-81
2024/03/11 09:56:47;;;;;;;0.70;0.70;;;;;;;18.79;39.45;95572.09;4977331;28;20047;-81
2024/03/11 09:59:19;;;;;;;1.23;0.65;;;;;;;18.85;38.70;95574.47;4978153;29;20070;-81
2024/03/11 10:01:52;;;;;;;0.40;0.40;;;;;;;18.96;38.25;95559.47;4977375;29;20047;-81
2024/03/11 10:04:22;;;;;;;2.60;0.45;;;;;;;19.71;37.50;95567.78;4957418;29;20500;-80
2024/03/11 10:06:56;;;;;;;0.32;0.32;;;;;;;21.21;34.81;95568.97;4956372;28;20051;-79
2024/03/11 10:09:25;;;;;;;0.52;0.38;;;;;;;22.18;33.80;95570.91;4958231;29;20054;-79
2024/03/11 10:12:02;;;;;;;0.85;0.40;;;;;;;22.28;33.25;95567.38;4962094;29;20062;-82
2024/03/11 10:14:33;;;;;;;0.98;0.50;;;;;;;21.93;32.85;95563.16;4964860;29;20055;-80
2024/03/11 10:17:20;;;;;;;2.97;0.30;;;;;;;21.63;33.39;95562.34;4964866;29;20053;-80
2024/03/11 10:19:54;;;;;;;0.60;0.40;;;;;;;21.55;33.80;95562.94;4965204;28;20062;-80
2024/03/11 10:22:23;;;;;;;0.52;0.38;;;;;;;21.24;35.57;95547.19;4964841;29;20110;-80
2024/03/11 10:24:54;;;;;;;2.08;0.40;;;;;;;21.22;36.07;95545.91;4964237;29;20053;-80
2024/03/11 10:27:23;;;;;;;1.98;1.02;;;;;;;21.33;35.18;95540.25;4964688;29;20051;-80
2024/03/11 10:29:51;;;;;;;1.60;1.50;;;;;;;21.42;34.57;95547.66;4964426;28;20051;-80
2024/03/11 10:32:33;;;;;;;2.20;1.40;;;;;;;21.44;34.53;95546.28;4964001;28;20083;-80
2024/03/11 10:35:02;;;;;;;2.63;1.35;;;;;;;21.56;36.60;95553.94;4963330;29;20125;-80
2024/03/11 10:37:30;;;;;;;3.55;1.83;;;;;;;21.65;34.56;95556.78;4963354;29;20051;-80
2024/03/11 10:40:00;;;;;;;1.30;1.20;;;;;;;21.63;35.98;95549.09;4963152;29;20089;-80
2024/03/11 10:42:32;;;;;;;2.83;1.38;;;;;;;21.75;36.45;95546.84;4962775;28;20058;-80
2024/03/11 10:45:05;;;;;;;1.58;1.17;;;;;;;21.81;35.44;95529.03;4962280;29;20051;-81
2024/03/11 10:47:33;;;;;;;1.38;1.20;;;;;;;21.83;35.29;95548.13;4963257;29;20054;-80
2024/03/11 10:50:02;;;;;;;0.82;0.82;;;;;;;21.79;35.63;95541.78;4963101;28;20055;-80
2024/03/11 10:52:33;;;;;;;1.42;1.23;;;;;;;21.72;33.47;95539.44;4962478;29;20114;-80
2024/03/11 10:55:02;;;;;;;1.45;1.13;;;;;;;21.63;34.29;95546.44;4961977;29;20051;-80
2024/03/11 10:57:44;;;;;;;0.70;0.60;;;;;;;21.66;34.69;95537.91;4962063;29;20051;-80
2024/03/11 11:00:20;;;;;;;0.57;0.38;;;;;;;21.61;33.49;95540.59;4963729;28;20047;-80
2024/03/11 11:03:07;;;;;;;0.73;0.63;;;;;;;21.56;32.66;95538.00;4961986;29;20047;-81
2024/03/11 11:05:47;;;;;;;1.15;0.60;;;;;;;21.44;32.63;95540.19;4961413;29;20284;-81
2024/03/11 11:08:16;;;;;;;1.42;0.80;;;;;;;21.43;31.98;95533.28;4960851;29;20051;-82
2024/03/11 11:10:45;;;;;;;0.70;0.70;;;;;;;21.51;33.37;95536.16;4961607;29;20043;-82
2024/03/11 11:13:16;;;;;;;0.90;0.40;;;;;;;21.69;33.57;95526.75;4961355;28;20138;-81
2024/03/11 11:15:45;;;;;;;2.33;0.40;;;;;;;21.81;32.34;95524.50;4960049;29;20062;-81
2024/03/11 11:18:16;;;;;;;1.52;0.30;;;;;;;21.84;30.09;95514.41;4960669;29;20078;-81
2024/03/11 11:20:49;;;;;;;1.47;0.60;;;;;;;21.56;31.44;95533.47;4960047;29;20471;-81
2024/03/11 11:23:25;;;;;;;2.25;0.65;;;;;;;21.25;32.34;95530.22;4960945;28;20102;-82
2024/03/11 11:25:55;;;;;;;2.67;0.90;;;;;;;21.14;32.87;95534.81;4961778;29;20427;-81
2024/03/11 11:28:28;;;;;;;2.35;0.35;;;;;;;21.25;33.13;95543.47;4962798;29;20051;-81
2024/03/11 11:31:11;;;;;;;0.90;0.38;;;;;;;21.13;32.04;95535.88;4960006;29;20094;-81
2024/03/11 11:33:49;;;;;;;0.60;0.30;;;;;;;20.95;33.89;95547.13;4959967;29;20051;-81
2024/03/11 11:37:02;;;;;;;0.88;0.38;;;;;;;20.92;32.06;95545.78;4959486;29;20055;-81
2024/03/11 11:39:33;;;;;;;;;;;;;;;21.09;34.36;95539.34;4925789;28;20062;-81
2024/03/11 11:42:02;;;;;;;1.10;0.25;;;;;;;21.29;31.26;95544.50;4958632;29;19985;-81
2024/03/11 11:44:47;;;;;;;0.90;0.20;;;;;;;21.56;32.72;95543.31;4958673;28;20106;-81
2024/03/11 11:47:16;;;;;;;0.20;0.10;;;;;;;21.80;32.50;95541.50;4965059;28;20048;-82
2024/03/11 11:49:44;;;;;;;0.50;0.50;;;;;;;21.72;31.06;95544.75;4973854;28;20051;-82